createdAt,value
2019-05-06T00:00:18.103Z,0.00
2019-05-06T00:01:18.102Z,0.00
2019-05-06T00:02:17.985Z,0.00
2019-05-06T00:03:17.983Z,0.00
2019-05-06T00:04:17.867Z,0.00
2019-05-06T00:05:17.864Z,0.00
2019-05-06T00:06:17.747Z,0.00
2019-05-06T00:07:17.745Z,0.00
2019-05-06T00:08:17.628Z,0.00
2019-05-06T00:09:17.630Z,0.00
2019-05-06T00:10:17.509Z,0.00
2019-05-06T00:11:17.506Z,0.00
2019-05-06T00:12:17.391Z,0.00
2019-05-06T00:13:17.387Z,0.00
2019-05-06T00:14:17.273Z,0.00
2019-05-06T00:15:17.269Z,0.00
2019-05-06T00:16:17.152Z,0.00
2019-05-06T00:17:17.150Z,0.00
2019-05-06T00:18:17.033Z,0.00
2019-05-06T00:19:17.031Z,0.00
2019-05-06T00:20:16.914Z,0.00
2019-05-06T00:21:16.912Z,0.00
2019-05-06T00:22:16.912Z,0.00
2019-05-06T00:23:16.794Z,0.00
2019-05-06T00:24:16.794Z,0.00
2019-05-06T00:25:16.884Z,0.00
2019-05-06T00:26:16.674Z,0.00
2019-05-06T00:27:16.561Z,0.00
2019-05-06T00:28:16.557Z,0.00
2019-05-06T00:29:16.439Z,0.00
2019-05-06T00:30:16.437Z,0.00
2019-05-06T00:31:16.719Z,0.00
2019-05-06T00:32:16.317Z,0.00
2019-05-06T00:33:16.200Z,0.00
2019-05-06T00:34:16.198Z,0.00
2019-05-06T00:35:16.081Z,0.00
2019-05-06T00:36:16.080Z,0.00
2019-05-06T00:37:15.962Z,0.00
2019-05-06T00:38:15.960Z,0.00
2019-05-06T00:39:15.843Z,0.00
2019-05-06T00:40:15.841Z,0.00
2019-05-06T00:41:15.725Z,0.00
2019-05-06T00:42:15.724Z,0.00
2019-05-06T00:43:15.613Z,0.00
2019-05-06T00:44:15.602Z,0.00
2019-05-06T00:45:15.489Z,0.00
2019-05-06T00:46:15.485Z,0.00
2019-05-06T00:47:15.367Z,0.00
2019-05-06T00:48:15.368Z,0.00
2019-05-06T00:49:15.249Z,0.00
2019-05-06T00:50:15.246Z,0.00
2019-05-06T00:51:15.131Z,0.00
2019-05-06T00:52:15.128Z,0.00
2019-05-06T00:53:15.127Z,0.00
2019-05-06T00:54:15.009Z,0.00
2019-05-06T00:55:15.007Z,0.00
2019-05-06T00:56:14.889Z,0.00
2019-05-06T00:57:14.888Z,0.00
2019-05-06T00:58:14.774Z,0.00
2019-05-06T00:59:14.777Z,0.00
2019-05-06T01:00:14.653Z,0.00
2019-05-06T01:01:25.923Z,0.00
2019-05-06T01:02:14.535Z,0.00
2019-05-06T01:03:14.531Z,0.00
2019-05-06T01:04:14.416Z,0.00
2019-05-06T01:05:14.413Z,0.00
2019-05-06T01:06:14.346Z,0.00
2019-05-06T01:07:14.294Z,0.00
2019-05-06T01:08:14.263Z,0.00
2019-05-06T01:09:14.194Z,0.00
2019-05-06T01:10:14.430Z,0.00
2019-05-06T01:11:14.464Z,0.00
2019-05-06T01:12:14.323Z,0.00
2019-05-06T01:13:14.584Z,0.00
2019-05-06T01:14:14.807Z,0.00
2019-05-06T01:15:14.240Z,0.00
2019-05-06T01:16:15.625Z,0.00
2019-05-06T01:17:13.699Z,0.00
2019-05-06T01:18:13.816Z,0.00
2019-05-06T01:19:14.150Z,0.00
2019-05-06T01:20:13.978Z,0.00
2019-05-06T01:21:14.531Z,0.00
2019-05-06T01:22:14.044Z,0.00
2019-05-06T01:23:14.384Z,0.00
2019-05-06T01:24:14.679Z,0.00
2019-05-06T01:25:14.207Z,0.00
2019-05-06T01:26:15.056Z,0.00
2019-05-06T01:27:14.539Z,0.00
2019-05-06T01:28:13.814Z,0.00
2019-05-06T01:29:14.547Z,0.00
2019-05-06T01:30:13.740Z,0.00
2019-05-06T01:31:13.982Z,0.00
2019-05-06T01:32:13.925Z,0.00
2019-05-06T01:33:14.481Z,0.00
2019-05-06T01:34:13.780Z,0.00
2019-05-06T01:35:14.065Z,0.00
2019-05-06T01:36:14.105Z,0.00
2019-05-06T01:37:14.232Z,0.00
2019-05-06T01:38:14.569Z,0.00
2019-05-06T01:39:13.855Z,0.00
2019-05-06T01:40:13.870Z,0.00
2019-05-06T01:41:13.603Z,0.00
2019-05-06T01:42:13.876Z,0.00
2019-05-06T01:43:14.376Z,0.00
2019-05-06T01:44:13.676Z,0.00
2019-05-06T01:45:14.051Z,0.00
2019-05-06T01:46:13.908Z,0.00
2019-05-06T01:47:11.918Z,0.00
2019-05-06T01:48:14.272Z,0.00
2019-05-06T01:49:13.641Z,0.00
2019-05-06T01:50:13.917Z,0.00
2019-05-06T01:51:11.677Z,0.00
2019-05-06T01:52:11.682Z,0.00
2019-05-06T01:53:11.560Z,0.00
2019-05-06T01:54:11.556Z,0.00
2019-05-06T01:55:11.439Z,0.00
2019-05-06T01:56:11.437Z,0.00
2019-05-06T01:57:13.582Z,0.00
2019-05-06T01:58:11.317Z,0.00
2019-05-06T01:59:11.320Z,0.00
2019-05-06T02:00:11.200Z,0.00
2019-05-06T02:01:11.199Z,0.00
2019-05-06T02:02:11.082Z,0.00
2019-05-06T02:03:11.080Z,0.00
2019-05-06T02:04:10.962Z,0.00
2019-05-06T02:05:10.998Z,0.00
2019-05-06T02:06:10.843Z,0.00
2019-05-06T02:07:10.842Z,0.00
2019-05-06T02:08:10.724Z,0.00
2019-05-06T02:09:10.728Z,0.00
2019-05-06T02:10:10.608Z,0.00
2019-05-06T02:11:10.603Z,0.00
2019-05-06T02:12:10.491Z,0.00
2019-05-06T02:13:10.487Z,0.00
2019-05-06T02:14:10.369Z,0.00
2019-05-06T02:15:10.367Z,0.00
2019-05-06T02:16:10.250Z,0.00
2019-05-06T02:17:10.247Z,0.00
2019-05-06T02:18:10.131Z,0.00
2019-05-06T02:19:10.128Z,0.00
2019-05-06T02:20:10.011Z,0.00
2019-05-06T02:21:10.008Z,0.00
2019-05-06T02:22:09.895Z,0.00
2019-05-06T02:23:09.892Z,0.00
2019-05-06T02:24:09.773Z,0.00
2019-05-06T02:25:09.771Z,0.00
2019-05-06T02:26:09.654Z,0.00
2019-05-06T02:27:09.653Z,0.00
2019-05-06T02:28:09.535Z,0.00
2019-05-06T02:29:09.532Z,0.00
2019-05-06T02:30:09.416Z,0.00
2019-05-06T02:31:09.421Z,0.00
2019-05-06T02:32:24.425Z,0.00
2019-05-06T02:33:09.295Z,0.00
2019-05-06T02:34:09.295Z,0.00
2019-05-06T02:35:09.177Z,0.00
2019-05-06T02:36:09.186Z,0.00
2019-05-06T02:37:09.059Z,0.00
2019-05-06T02:38:09.057Z,0.00
2019-05-06T02:39:08.939Z,0.00
2019-05-06T02:40:08.938Z,0.00
2019-05-06T02:41:08.865Z,0.00
2019-05-06T02:42:08.819Z,0.00
2019-05-06T02:43:08.703Z,0.00
2019-05-06T02:44:11.025Z,0.00
2019-05-06T02:45:08.585Z,0.00
2019-05-06T02:46:08.585Z,0.00
2019-05-06T02:47:08.464Z,0.00
2019-05-06T02:48:08.466Z,0.00
2019-05-06T02:49:08.362Z,0.00
2019-05-06T02:50:08.344Z,0.00
2019-05-06T02:51:08.227Z,0.00
2019-05-06T02:52:08.225Z,0.00
2019-05-06T02:53:08.106Z,0.00
2019-05-06T02:54:08.107Z,0.00
2019-05-06T02:55:07.994Z,0.00
2019-05-06T02:56:07.987Z,0.00
2019-05-06T02:57:07.988Z,0.00
2019-05-06T02:58:07.867Z,0.00
2019-05-06T02:59:07.752Z,0.00
2019-05-06T03:00:07.750Z,0.00
2019-05-06T03:01:07.632Z,0.00
2019-05-06T03:02:07.632Z,0.00
2019-05-06T03:03:07.513Z,0.00
2019-05-06T03:04:07.510Z,0.00
2019-05-06T03:05:07.397Z,0.00
2019-05-06T03:06:08.121Z,0.00
2019-05-06T03:07:07.274Z,0.00
2019-05-06T03:08:07.274Z,0.00
2019-05-06T03:09:07.282Z,0.00
2019-05-06T03:10:07.163Z,0.00
2019-05-06T03:11:07.155Z,0.00
2019-05-06T03:12:07.038Z,0.00
2019-05-06T03:13:07.038Z,0.00
2019-05-06T03:14:06.915Z,0.00
2019-05-06T03:15:06.915Z,0.00
2019-05-06T03:16:06.797Z,0.00
2019-05-06T03:17:06.797Z,0.00
2019-05-06T03:18:06.684Z,0.00
2019-05-06T03:19:06.675Z,0.00
2019-05-06T03:20:06.566Z,0.00
2019-05-06T03:21:06.594Z,0.00
2019-05-06T03:22:06.441Z,0.00
2019-05-06T03:23:06.441Z,0.00
2019-05-06T03:24:07.373Z,0.00
2019-05-06T03:25:07.062Z,0.00
2019-05-06T03:26:06.946Z,0.00
2019-05-06T03:27:06.209Z,0.00
2019-05-06T03:28:06.099Z,0.00
2019-05-06T03:29:06.084Z,0.00
2019-05-06T03:30:05.967Z,0.00
2019-05-06T03:31:07.222Z,0.00
2019-05-06T03:32:07.477Z,0.00
2019-05-06T03:33:40.242Z,0.00
2019-05-06T03:34:29.063Z,0.00
2019-05-06T03:35:24.855Z,0.00
2019-05-06T03:36:14.219Z,0.00
2019-05-06T03:37:07.775Z,0.00
2019-05-06T03:38:05.489Z,0.00
2019-05-06T03:39:05.487Z,0.00
2019-05-06T03:40:05.371Z,0.00
2019-05-06T03:41:05.372Z,0.00
2019-05-06T03:42:05.250Z,0.00
2019-05-06T03:43:05.250Z,0.00
2019-05-06T03:44:05.133Z,0.00
2019-05-06T03:45:05.130Z,0.00
2019-05-06T03:46:05.159Z,0.00
2019-05-06T03:47:05.785Z,0.00
2019-05-06T03:48:05.997Z,0.00
2019-05-06T03:49:04.893Z,0.00
2019-05-06T03:50:04.989Z,0.00
2019-05-06T03:51:04.773Z,0.00
2019-05-06T03:52:04.773Z,0.00
2019-05-06T03:53:04.654Z,0.00
2019-05-06T03:54:04.655Z,0.00
2019-05-06T03:55:04.565Z,0.00
2019-05-06T03:56:04.537Z,0.00
2019-05-06T03:57:04.418Z,0.00
2019-05-06T03:58:04.441Z,0.00
2019-05-06T03:59:04.306Z,0.00
2019-05-06T04:00:05.078Z,0.00
2019-05-06T04:01:04.180Z,0.00
2019-05-06T04:02:05.269Z,0.00
2019-05-06T04:03:04.060Z,0.00
2019-05-06T04:04:04.065Z,0.00
2019-05-06T04:05:04.413Z,0.00
2019-05-06T04:06:04.692Z,0.00
2019-05-06T04:07:03.824Z,0.00
2019-05-06T04:08:04.094Z,0.00
2019-05-06T04:09:03.916Z,0.00
2019-05-06T04:10:04.002Z,0.00
2019-05-06T04:11:03.594Z,0.00
2019-05-06T04:12:03.796Z,0.00
2019-05-06T04:13:04.332Z,0.00
2019-05-06T04:14:03.463Z,0.00
2019-05-06T04:15:04.217Z,0.00
2019-05-06T04:16:03.911Z,0.00
2019-05-06T04:17:03.485Z,0.00
2019-05-06T04:18:04.074Z,0.00
2019-05-06T04:19:04.143Z,0.00
2019-05-06T04:20:03.963Z,0.00
2019-05-06T04:21:03.750Z,0.00
2019-05-06T04:22:03.653Z,0.00
2019-05-06T04:23:06.017Z,0.00
2019-05-06T04:24:04.157Z,0.00
2019-05-06T04:25:04.031Z,0.00
2019-05-06T04:26:17.269Z,0.00
2019-05-06T04:27:03.260Z,0.00
2019-05-06T04:28:03.012Z,0.00
2019-05-06T04:29:03.959Z,0.00
2019-05-06T04:30:04.625Z,0.00
2019-05-06T04:31:05.285Z,0.00
2019-05-06T04:32:03.468Z,0.00
2019-05-06T04:33:03.271Z,0.00
2019-05-06T04:34:13.846Z,0.00
2019-05-06T04:35:04.410Z,0.00
2019-05-06T04:36:03.656Z,0.00
2019-05-06T04:37:03.542Z,0.00
2019-05-06T04:38:03.276Z,0.00
2019-05-06T04:39:04.198Z,0.00
2019-05-06T04:40:04.444Z,0.00
2019-05-06T04:41:02.965Z,0.00
2019-05-06T04:42:03.469Z,0.00
2019-05-06T04:43:03.632Z,0.00
2019-05-06T04:44:02.882Z,0.00
2019-05-06T04:45:04.607Z,0.00
2019-05-06T04:46:03.235Z,0.00
2019-05-06T04:47:05.025Z,0.00
2019-05-06T04:48:03.560Z,0.00
2019-05-06T04:49:03.987Z,0.00
2019-05-06T04:50:04.675Z,0.00
2019-05-06T04:51:03.289Z,0.00
2019-05-06T04:52:03.611Z,0.00
2019-05-06T04:53:04.789Z,0.00
2019-05-06T04:54:04.006Z,0.00
2019-05-06T04:55:03.461Z,0.00
2019-05-06T04:56:03.795Z,0.00
2019-05-06T04:57:00.964Z,0.00
2019-05-06T04:58:03.806Z,0.00
2019-05-06T04:59:05.753Z,0.00
2019-05-06T05:00:03.819Z,0.00
2019-05-06T05:01:03.798Z,0.00
2019-05-06T05:02:02.701Z,0.00
2019-05-06T05:03:03.035Z,0.00
2019-05-06T05:04:03.265Z,0.00
2019-05-06T05:05:03.780Z,4.00
2019-05-06T05:06:03.041Z,4.00
2019-05-06T05:07:00.369Z,4.00
2019-05-06T05:08:02.454Z,4.00
2019-05-06T05:09:02.564Z,4.00
2019-05-06T05:10:03.233Z,4.00
2019-05-06T05:11:00.131Z,4.00
2019-05-06T05:12:02.520Z,4.00
2019-05-06T05:13:00.013Z,0.00
2019-05-06T05:14:02.595Z,0.00
2019-05-06T05:14:59.893Z,0.00
2019-05-06T05:16:02.138Z,0.00
2019-05-06T05:17:02.043Z,0.00
2019-05-06T05:17:59.773Z,0.00
2019-05-06T05:18:59.655Z,0.00
2019-05-06T05:20:01.971Z,0.00
2019-05-06T05:20:59.539Z,0.00
2019-05-06T05:21:59.534Z,0.00
2019-05-06T05:22:59.418Z,0.00
2019-05-06T05:23:59.416Z,0.00
2019-05-06T05:24:59.298Z,0.00
2019-05-06T05:25:59.300Z,4.00
2019-05-06T05:26:59.182Z,4.00
2019-05-06T05:27:59.185Z,4.00
2019-05-06T05:28:59.061Z,4.00
2019-05-06T05:29:59.058Z,4.00
2019-05-06T05:30:58.943Z,4.00
2019-05-06T05:31:58.941Z,4.00
2019-05-06T05:32:58.824Z,4.00
2019-05-06T05:33:58.820Z,0.00
2019-05-06T05:34:58.704Z,0.00
2019-05-06T05:35:58.752Z,0.00
2019-05-06T05:36:58.587Z,4.00
2019-05-06T05:37:58.582Z,4.00
2019-05-06T05:38:58.492Z,4.00
2019-05-06T05:39:58.465Z,4.00
2019-05-06T05:40:58.353Z,4.00
2019-05-06T05:41:58.345Z,4.00
2019-05-06T05:42:58.228Z,4.00
2019-05-06T05:43:58.227Z,4.00
2019-05-06T05:44:58.225Z,4.00
2019-05-06T05:45:58.143Z,4.00
2019-05-06T05:46:58.107Z,4.00
2019-05-06T05:47:57.987Z,4.00
2019-05-06T05:48:57.988Z,4.00
2019-05-06T05:49:57.870Z,4.00
2019-05-06T05:50:57.869Z,4.00
2019-05-06T05:51:57.750Z,4.00
2019-05-06T05:52:57.789Z,4.00
2019-05-06T05:53:57.632Z,4.00
2019-05-06T05:54:57.630Z,4.00
2019-05-06T05:55:57.513Z,4.00
2019-05-06T05:56:57.512Z,4.00
2019-05-06T05:57:57.394Z,4.00
2019-05-06T05:58:57.393Z,4.00
2019-05-06T05:59:57.275Z,4.00
2019-05-06T06:00:57.274Z,4.00
2019-05-06T06:01:57.157Z,4.00
2019-05-06T06:02:57.156Z,8.00
2019-05-06T06:03:57.038Z,8.00
2019-05-06T06:04:57.720Z,8.00
2019-05-06T06:05:56.919Z,8.00
2019-05-06T06:06:56.916Z,8.00
2019-05-06T06:07:56.799Z,8.00
2019-05-06T06:08:56.796Z,4.00
2019-05-06T06:09:56.682Z,4.00
2019-05-06T06:10:56.691Z,4.00
2019-05-06T06:11:56.569Z,4.00
2019-05-06T06:12:56.559Z,4.00
2019-05-06T06:13:56.445Z,4.00
2019-05-06T06:14:56.529Z,4.00
2019-05-06T06:15:56.325Z,4.00
2019-05-06T06:16:56.322Z,4.00
2019-05-06T06:17:56.205Z,4.00
2019-05-06T06:18:56.202Z,4.00
2019-05-06T06:19:56.087Z,4.00
2019-05-06T06:20:56.119Z,4.00
2019-05-06T06:21:55.967Z,4.00
2019-05-06T06:22:55.964Z,4.00
2019-05-06T06:23:55.848Z,8.00
2019-05-06T06:24:55.845Z,8.00
2019-05-06T06:25:55.845Z,8.00
2019-05-06T06:26:55.725Z,4.00
2019-05-06T06:27:55.726Z,4.00
2019-05-06T06:28:55.606Z,4.00
2019-05-06T06:29:55.610Z,4.00
2019-05-06T06:30:55.491Z,4.00
2019-05-06T06:31:55.488Z,8.00
2019-05-06T06:32:55.371Z,8.00
2019-05-06T06:33:55.372Z,8.00
2019-05-06T06:35:07.436Z,4.00
2019-05-06T06:35:55.250Z,4.00
2019-05-06T06:36:55.133Z,4.00
2019-05-06T06:37:55.134Z,4.00
2019-05-06T06:38:55.015Z,4.00
2019-05-06T06:39:55.015Z,4.00
2019-05-06T06:40:55.698Z,4.00
2019-05-06T06:41:54.893Z,4.00
2019-05-06T06:42:54.777Z,4.00
2019-05-06T06:43:54.775Z,4.00
2019-05-06T06:44:54.659Z,4.00
2019-05-06T06:45:54.656Z,4.00
2019-05-06T06:46:54.545Z,4.00
2019-05-06T06:47:54.537Z,4.00
2019-05-06T06:48:54.419Z,4.00
2019-05-06T06:49:54.418Z,4.00
2019-05-06T06:50:54.300Z,8.00
2019-05-06T06:51:54.298Z,8.00
2019-05-06T06:52:54.183Z,8.00
2019-05-06T06:53:54.179Z,8.00
2019-05-06T06:54:54.062Z,4.00
2019-05-06T06:55:54.059Z,4.00
2019-05-06T06:57:05.213Z,4.00
2019-05-06T06:57:53.941Z,4.00
2019-05-06T06:58:53.823Z,8.00
2019-05-06T06:59:53.822Z,8.00
2019-05-06T07:00:53.705Z,8.00
2019-05-06T07:01:53.702Z,8.00
2019-05-06T07:02:53.585Z,8.00
2019-05-06T07:03:53.584Z,8.00
2019-05-06T07:04:53.468Z,8.00
2019-05-06T07:05:53.465Z,8.00
2019-05-06T07:06:53.350Z,4.00
2019-05-06T07:07:53.345Z,4.00
2019-05-06T07:08:53.346Z,4.00
2019-05-06T07:09:53.227Z,4.00
2019-05-06T07:10:53.227Z,4.00
2019-05-06T07:11:53.108Z,4.00
2019-05-06T07:12:53.307Z,4.00
2019-05-06T07:13:53.170Z,4.00
2019-05-06T07:14:53.000Z,4.00
2019-05-06T07:15:52.870Z,8.00
2019-05-06T07:16:53.418Z,8.00
2019-05-06T07:17:52.759Z,8.00
2019-05-06T07:18:52.830Z,8.00
2019-05-06T07:19:52.796Z,8.00
2019-05-06T07:20:52.720Z,8.00
2019-05-06T07:21:52.514Z,8.00
2019-05-06T07:22:52.981Z,8.00
2019-05-06T07:23:53.024Z,8.00
2019-05-06T07:24:52.875Z,8.00
2019-05-06T07:25:53.772Z,4.00
2019-05-06T07:26:52.506Z,4.00
2019-05-06T07:27:52.951Z,4.00
2019-05-06T07:28:52.637Z,4.00
2019-05-06T07:29:52.380Z,4.00
2019-05-06T07:30:52.250Z,4.00
2019-05-06T07:31:53.490Z,4.00
2019-05-06T07:32:52.758Z,4.00
2019-05-06T07:33:52.318Z,4.00
2019-05-06T07:34:53.113Z,4.00
2019-05-06T07:35:53.073Z,4.00
2019-05-06T07:36:52.463Z,4.00
2019-05-06T07:37:53.024Z,4.00
2019-05-06T07:38:52.779Z,8.00
2019-05-06T07:39:52.858Z,8.00
2019-05-06T07:40:52.985Z,4.00
2019-05-06T07:41:53.525Z,4.00
2019-05-06T07:42:52.664Z,4.00
2019-05-06T07:43:52.536Z,8.00
2019-05-06T07:44:52.894Z,8.00
2019-05-06T07:45:53.099Z,8.00
2019-05-06T07:46:52.474Z,8.00
2019-05-06T07:47:53.092Z,8.00
2019-05-06T07:48:51.892Z,8.00
2019-05-06T07:49:53.065Z,8.00
2019-05-06T07:50:52.073Z,8.00
2019-05-06T07:51:52.892Z,4.00
2019-05-06T07:52:52.729Z,4.00
2019-05-06T07:53:52.469Z,4.00
2019-05-06T07:54:53.161Z,4.00
2019-05-06T07:55:52.479Z,4.00
2019-05-06T07:56:52.619Z,4.00
2019-05-06T07:57:52.438Z,4.00
2019-05-06T07:58:52.772Z,4.00
2019-05-06T07:59:52.355Z,4.00
2019-05-06T08:00:52.355Z,4.00
2019-05-06T08:01:50.251Z,4.00
2019-05-06T08:02:52.003Z,4.00
2019-05-06T08:03:50.133Z,4.00
2019-05-06T08:04:50.015Z,4.00
2019-05-06T08:05:55.793Z,4.00
2019-05-06T08:06:52.198Z,4.00
2019-05-06T08:07:49.896Z,4.00
2019-05-06T08:08:49.778Z,4.00
2019-05-06T08:09:49.775Z,4.00
2019-05-06T08:10:49.657Z,8.00
2019-05-06T08:11:49.656Z,4.00
2019-05-06T08:12:49.541Z,4.00
2019-05-06T08:13:49.538Z,4.00
2019-05-06T08:14:49.419Z,4.00
2019-05-06T08:15:49.417Z,8.00
2019-05-06T08:16:49.300Z,4.00
2019-05-06T08:17:49.300Z,4.00
2019-05-06T08:18:49.182Z,4.00
2019-05-06T08:19:49.180Z,4.00
2019-05-06T08:20:49.063Z,8.00
2019-05-06T08:21:49.066Z,8.00
2019-05-06T08:22:48.979Z,4.00
2019-05-06T08:23:48.942Z,4.00
2019-05-06T08:24:48.860Z,8.00
2019-05-06T08:25:48.821Z,8.00
2019-05-06T08:26:48.706Z,8.00
2019-05-06T08:27:49.635Z,8.00
2019-05-06T08:28:48.586Z,8.00
2019-05-06T08:29:48.584Z,12.00
2019-05-06T08:30:48.481Z,8.00
2019-05-06T08:31:48.466Z,8.00
2019-05-06T08:32:48.348Z,8.00
2019-05-06T08:33:48.345Z,8.00
2019-05-06T08:34:48.346Z,8.00
2019-05-06T08:35:48.227Z,8.00
2019-05-06T08:36:48.230Z,12.00
2019-05-06T08:37:48.108Z,8.00
2019-05-06T08:38:48.108Z,8.00
2019-05-06T08:39:47.990Z,8.00
2019-05-06T08:40:47.991Z,8.00
2019-05-06T08:41:47.871Z,12.00
2019-05-06T08:42:47.870Z,12.00
2019-05-06T08:43:47.752Z,8.00
2019-05-06T08:44:47.752Z,8.00
2019-05-06T08:45:47.634Z,12.00
2019-05-06T08:46:47.632Z,8.00
2019-05-06T08:47:47.517Z,12.00
2019-05-06T08:48:47.513Z,12.00
2019-05-06T08:49:49.326Z,16.00
2019-05-06T08:50:47.398Z,12.00
2019-05-06T08:51:47.277Z,16.00
2019-05-06T08:52:47.275Z,16.00
2019-05-06T08:53:47.158Z,12.00
2019-05-06T08:54:47.158Z,16.00
2019-05-06T08:55:47.040Z,16.00
2019-05-06T08:56:47.037Z,16.00
2019-05-06T08:57:46.920Z,16.00
2019-05-06T08:58:46.926Z,16.00
2019-05-06T08:59:46.801Z,20.00
2019-05-06T09:00:46.799Z,16.00
2019-05-06T09:01:46.683Z,12.00
2019-05-06T09:02:46.680Z,12.00
2019-05-06T09:03:46.563Z,16.00
2019-05-06T09:04:46.565Z,12.00
2019-05-06T09:05:46.445Z,16.00
2019-05-06T09:06:46.444Z,12.00
2019-05-06T09:07:46.325Z,12.00
2019-05-06T09:08:46.322Z,12.00
2019-05-06T09:09:46.208Z,12.00
2019-05-06T09:10:46.205Z,12.00
2019-05-06T09:11:46.089Z,16.00
2019-05-06T09:12:46.085Z,16.00
2019-05-06T09:13:45.972Z,16.00
2019-05-06T09:14:45.965Z,28.00
2019-05-06T09:15:45.849Z,24.00
2019-05-06T09:16:45.846Z,28.00
2019-05-06T09:17:45.847Z,20.00
2019-05-06T09:18:45.729Z,32.00
2019-05-06T09:19:45.729Z,36.00
2019-05-06T09:20:45.608Z,36.00
2019-05-06T09:21:46.528Z,32.00
2019-05-06T09:22:45.494Z,36.00
2019-05-06T09:23:45.491Z,20.00
2019-05-06T09:24:45.372Z,20.00
2019-05-06T09:25:45.370Z,28.00
2019-05-06T09:26:45.265Z,32.00
2019-05-06T09:27:45.251Z,36.00
2019-05-06T09:28:45.169Z,32.00
2019-05-06T09:29:45.134Z,16.00
2019-05-06T09:30:45.015Z,12.00
2019-05-06T09:31:45.016Z,12.00
2019-05-06T09:32:44.895Z,20.00
2019-05-06T09:33:44.894Z,16.00
2019-05-06T09:34:44.777Z,32.00
2019-05-06T09:35:44.779Z,32.00
2019-05-06T09:36:51.710Z,24.00
2019-05-06T09:37:44.656Z,24.00
2019-05-06T09:38:44.542Z,28.00
2019-05-06T09:39:44.598Z,32.00
2019-05-06T09:40:44.460Z,24.00
2019-05-06T09:41:46.761Z,24.00
2019-05-06T09:42:44.303Z,24.00
2019-05-06T09:43:44.302Z,20.00
2019-05-06T09:44:44.186Z,20.00
2019-05-06T09:45:44.180Z,28.00
2019-05-06T09:46:44.063Z,32.00
2019-05-06T09:47:44.061Z,36.00
2019-05-06T09:48:43.945Z,36.00
2019-05-06T09:49:43.943Z,36.00
2019-05-06T09:50:46.216Z,32.00
2019-05-06T09:51:43.826Z,32.00
2019-05-06T09:52:43.707Z,36.00
2019-05-06T09:53:43.703Z,36.00
2019-05-06T09:54:43.590Z,36.00
2019-05-06T09:55:43.584Z,36.00
2019-05-06T09:56:43.471Z,36.00
2019-05-06T09:57:43.465Z,32.00
2019-05-06T09:58:43.358Z,12.00
2019-05-06T09:59:43.347Z,12.00
2019-05-06T10:00:43.350Z,8.00
2019-05-06T10:01:43.733Z,12.00
2019-05-06T10:02:43.229Z,8.00
2019-05-06T10:03:43.114Z,8.00
2019-05-06T10:04:43.109Z,8.00
2019-05-06T10:05:42.996Z,8.00
2019-05-06T10:06:55.663Z,8.00
2019-05-06T10:07:42.874Z,8.00
2019-05-06T10:08:42.897Z,8.00
2019-05-06T10:09:43.414Z,8.00
2019-05-06T10:10:55.924Z,8.00
2019-05-06T10:11:42.634Z,8.00
2019-05-06T10:12:42.632Z,4.00
2019-05-06T10:13:43.138Z,8.00
2019-05-06T10:14:43.354Z,8.00
2019-05-06T10:15:42.981Z,8.00
2019-05-06T10:16:43.052Z,4.00
2019-05-06T10:17:42.884Z,8.00
2019-05-06T10:18:42.285Z,4.00
2019-05-06T10:19:42.900Z,4.00
2019-05-06T10:20:42.894Z,4.00
2019-05-06T10:21:42.712Z,8.00
2019-05-06T10:22:43.033Z,4.00
2019-05-06T10:23:42.413Z,4.00
2019-05-06T10:24:43.145Z,4.00
2019-05-06T10:25:43.743Z,4.00
2019-05-06T10:26:43.156Z,8.00
2019-05-06T10:27:42.313Z,4.00
2019-05-06T10:28:41.697Z,4.00
2019-05-06T10:29:43.260Z,4.00
2019-05-06T10:30:41.565Z,8.00
2019-05-06T10:31:43.199Z,4.00
2019-05-06T10:32:42.626Z,8.00
2019-05-06T10:33:42.687Z,4.00
2019-05-06T10:34:43.318Z,8.00
2019-05-06T10:35:42.865Z,8.00
2019-05-06T10:36:42.708Z,8.00
2019-05-06T10:37:42.230Z,8.00
2019-05-06T10:38:42.389Z,8.00
2019-05-06T10:39:41.091Z,12.00
2019-05-06T10:40:59.040Z,12.00
2019-05-06T10:41:42.252Z,8.00
2019-05-06T10:42:42.904Z,12.00
2019-05-06T10:43:42.996Z,12.00
2019-05-06T10:44:42.870Z,12.00
2019-05-06T10:45:42.567Z,12.00
2019-05-06T10:46:42.925Z,12.00
2019-05-06T10:47:42.328Z,12.00
2019-05-06T10:48:42.252Z,12.00
2019-05-06T10:49:42.041Z,12.00
2019-05-06T10:50:40.374Z,16.00
2019-05-06T10:51:42.623Z,12.00
2019-05-06T10:52:40.255Z,16.00
2019-05-06T10:53:42.321Z,12.00
2019-05-06T10:54:42.127Z,16.00
2019-05-06T10:55:42.609Z,12.00
2019-05-06T10:56:52.299Z,12.00
2019-05-06T10:57:40.434Z,24.00
2019-05-06T10:58:39.897Z,28.00
2019-05-06T10:59:39.896Z,32.00
2019-05-06T11:00:39.780Z,20.00
2019-05-06T11:01:39.774Z,16.00
2019-05-06T11:02:39.660Z,12.00
2019-05-06T11:03:41.524Z,16.00
2019-05-06T11:04:39.542Z,12.00
2019-05-06T11:05:39.547Z,8.00
2019-05-06T11:06:39.422Z,8.00
2019-05-06T11:07:39.421Z,8.00
2019-05-06T11:08:39.302Z,8.00
2019-05-06T11:09:39.299Z,8.00
2019-05-06T11:10:41.511Z,8.00
2019-05-06T11:11:39.183Z,4.00
2019-05-06T11:12:39.064Z,4.00
2019-05-06T11:13:39.062Z,4.00
2019-05-06T11:14:38.946Z,0.00
2019-05-06T11:15:38.955Z,0.00
2019-05-06T11:16:38.943Z,4.00
2019-05-06T11:17:38.824Z,4.00
2019-05-06T11:18:38.824Z,4.00
2019-05-06T11:19:38.704Z,4.00
2019-05-06T11:20:38.707Z,8.00
2019-05-06T11:21:38.587Z,4.00
2019-05-06T11:22:38.586Z,4.00
2019-05-06T11:23:38.467Z,4.00
2019-05-06T11:24:38.469Z,4.00
2019-05-06T11:25:38.351Z,8.00
2019-05-06T11:26:38.347Z,8.00
2019-05-06T11:27:41.870Z,4.00
2019-05-06T11:28:38.229Z,4.00
2019-05-06T11:29:38.113Z,4.00
2019-05-06T11:30:38.112Z,8.00
2019-05-06T11:31:37.993Z,8.00
2019-05-06T11:32:41.153Z,8.00
2019-05-06T11:33:37.883Z,8.00
2019-05-06T11:34:37.871Z,4.00
2019-05-06T11:35:37.759Z,8.00
2019-05-06T11:36:37.762Z,8.00
2019-05-06T11:37:49.020Z,8.00
2019-05-06T11:38:37.633Z,8.00
2019-05-06T11:39:37.518Z,12.00
2019-05-06T11:40:37.515Z,8.00
2019-05-06T11:41:37.402Z,8.00
2019-05-06T11:42:37.406Z,12.00
2019-05-06T11:43:37.279Z,8.00
2019-05-06T11:44:37.278Z,8.00
2019-05-06T11:45:37.162Z,12.00
2019-05-06T11:46:37.171Z,12.00
2019-05-06T11:47:37.041Z,12.00
2019-05-06T11:48:37.054Z,8.00
2019-05-06T11:49:36.922Z,12.00
2019-05-06T11:50:36.919Z,12.00
2019-05-06T11:51:36.803Z,12.00
2019-05-06T11:52:36.802Z,12.00
2019-05-06T11:53:36.802Z,12.00
2019-05-06T11:54:36.682Z,12.00
2019-05-06T11:55:38.746Z,12.00
2019-05-06T11:56:47.722Z,12.00
2019-05-06T11:57:36.562Z,12.00
2019-05-06T11:58:36.447Z,12.00
2019-05-06T11:59:36.443Z,12.00
2019-05-06T12:00:36.325Z,12.00
2019-05-06T12:01:36.325Z,12.00
2019-05-06T12:02:36.207Z,12.00
2019-05-06T12:03:36.206Z,12.00
2019-05-06T12:04:36.088Z,12.00
2019-05-06T12:05:36.087Z,12.00
2019-05-06T12:06:35.970Z,16.00
2019-05-06T12:07:35.968Z,12.00
2019-05-06T12:08:35.852Z,12.00
2019-05-06T12:09:35.848Z,12.00
2019-05-06T12:10:35.733Z,12.00
2019-05-06T12:11:35.744Z,12.00
2019-05-06T12:12:35.613Z,12.00
2019-05-06T12:13:38.186Z,12.00
2019-05-06T12:14:35.493Z,16.00
2019-05-06T12:15:35.492Z,12.00
2019-05-06T12:16:35.380Z,12.00
2019-05-06T12:17:35.372Z,16.00
2019-05-06T12:18:35.257Z,12.00
2019-05-06T12:19:35.255Z,12.00
2019-05-06T12:20:35.137Z,12.00
2019-05-06T12:21:35.138Z,16.00
2019-05-06T12:22:35.019Z,12.00
2019-05-06T12:23:35.753Z,12.00
2019-05-06T12:24:34.899Z,16.00
2019-05-06T12:25:34.898Z,12.00
2019-05-06T12:26:34.782Z,16.00
2019-05-06T12:27:34.778Z,16.00
2019-05-06T12:28:34.777Z,16.00
2019-05-06T12:29:34.665Z,16.00
2019-05-06T12:30:34.661Z,16.00
2019-05-06T12:31:34.539Z,16.00
2019-05-06T12:32:34.540Z,16.00
2019-05-06T12:33:34.421Z,16.00
2019-05-06T12:34:34.421Z,16.00
2019-05-06T12:35:34.309Z,16.00
2019-05-06T12:36:34.304Z,20.00
2019-05-06T12:37:34.184Z,24.00
2019-05-06T12:38:34.184Z,24.00
2019-05-06T12:39:34.085Z,16.00
2019-05-06T12:40:34.064Z,12.00
2019-05-06T12:41:33.948Z,8.00
2019-05-06T12:42:33.945Z,8.00
2019-05-06T12:43:33.829Z,8.00
2019-05-06T12:44:33.826Z,8.00
2019-05-06T12:45:33.709Z,4.00
2019-05-06T12:46:33.717Z,4.00
2019-05-06T12:47:33.589Z,4.00
2019-05-06T12:48:33.589Z,4.00
2019-05-06T12:49:33.472Z,4.00
2019-05-06T12:50:33.485Z,4.00
2019-05-06T12:51:33.351Z,4.00
2019-05-06T12:52:33.350Z,4.00
2019-05-06T12:53:33.238Z,4.00
2019-05-06T12:54:33.648Z,4.00
2019-05-06T12:55:33.776Z,4.00
2019-05-06T12:56:33.112Z,4.00
2019-05-06T12:57:34.371Z,4.00
2019-05-06T12:58:32.992Z,4.00
2019-05-06T12:59:32.875Z,4.00
2019-05-06T13:00:32.874Z,4.00
2019-05-06T13:01:33.844Z,8.00
2019-05-06T13:02:32.924Z,4.00
2019-05-06T13:03:34.994Z,4.00
2019-05-06T13:04:49.687Z,4.00
2019-05-06T13:05:32.635Z,4.00
2019-05-06T13:06:33.411Z,8.00
2019-05-06T13:07:32.526Z,8.00
2019-05-06T13:08:51.740Z,8.00
2019-05-06T13:09:33.123Z,4.00
2019-05-06T13:10:33.519Z,4.00
2019-05-06T13:11:32.295Z,8.00
2019-05-06T13:12:33.731Z,8.00